Time;durP1;ratioP1;P1;durP2;ratioP2;P2;SDS_P1;SDS_P2;PMS_P1;PMS_P2;Temp;Humidity;BMP_temperature;BMP_pressure;BME280_temperature;BME280_humidity;BME280_pressure;Samples;Min_cycle;Max_cycle;Signal;HPM_P1;HPM_P2
2023/06/19 00:00:56;;;;;;;3.97;3.45;;;21.20;99.90;;;;;;4762418;30;20135;-94
2023/06/19 00:03:22;;;;;;;3.60;3.30;;;21.20;99.90;;;;;;4752067;30;20083;-95
2023/06/19 00:05:53;;;;;;;3.72;3.30;;;21.20;99.90;;;;;;4761129;30;20062;-95
2023/06/19 00:08:24;;;;;;;3.53;3.13;;;21.20;99.90;;;;;;4771027;29;20412;-95
2023/06/19 00:10:50;;;;;;;3.17;2.85;;;21.20;99.90;;;;;;4761890;30;20047;-94
2023/06/19 00:13:16;;;;;;;3.20;2.90;;;21.30;99.90;;;;;;4771316;30;20047;-96
2023/06/19 00:15:48;;;;;;;3.47;2.95;;;21.20;99.90;;;;;;4737255;30;20043;-95
2023/06/19 00:18:16;;;;;;;4.78;3.10;;;21.20;99.90;;;;;;4762227;30;20043;-95
2023/06/19 00:20:46;;;;;;;3.92;3.47;;;21.20;99.90;;;;;;4753010;30;20204;-94
2023/06/19 00:23:14;;;;;;;3.80;3.50;;;21.20;99.90;;;;;;4766991;30;20047;-94
2023/06/19 00:25:49;;;;;;;3.60;3.22;;;21.20;99.90;;;;;;4771704;30;20044;-95
2023/06/19 00:28:19;;;;;;;4.00;3.60;;;21.20;99.90;;;;;;4741127;30;20044;-94
2023/06/19 00:30:45;;;;;;;3.97;3.63;;;21.10;99.90;;;;;;4774190;30;20133;-96
2023/06/19 00:33:11;;;;;;;4.45;3.35;;;21.20;99.90;;;;;;4747595;30;20089;-95
2023/06/19 00:35:37;;;;;;;4.50;3.45;;;21.20;99.90;;;;;;4756841;30;20057;-96
2023/06/19 00:38:05;;;;;;;4.05;3.30;;;21.10;99.90;;;;;;4771905;30;20510;-96
2023/06/19 00:40:33;;;;;;;3.58;3.13;;;21.20;99.90;;;;;;4775369;30;20590;-94
2023/06/19 00:42:59;;;;;;;3.60;3.30;;;21.10;99.90;;;;;;4768817;30;20484;-96
2023/06/19 00:45:30;;;;;;;4.30;3.90;;;21.10;99.90;;;;;;4762838;29;20047;-95
2023/06/19 00:47:57;;;;;;;4.07;3.53;;;21.10;99.90;;;;;;4759176;30;20154;-95
2023/06/19 00:50:29;;;;;;;5.82;3.53;;;21.10;99.90;;;;;;4761541;30;20054;-96
2023/06/19 00:52:56;;;;;;;3.72;3.28;;;21.00;99.90;;;;;;4771693;30;20051;-95
2023/06/19 00:55:22;;;;;;;3.65;3.08;;;21.10;99.90;;;;;;4743985;30;20039;-96
2023/06/19 00:57:53;;;;;;;4.07;3.75;;;21.10;99.90;;;;;;4757315;30;20512;-96
2023/06/19 01:00:21;;;;;;;3.50;3.20;;;21.10;99.90;;;;;;4776667;30;20767;-96
2023/06/19 01:02:47;;;;;;;3.58;3.28;;;21.00;99.90;;;;;;4769114;30;20079;-95
2023/06/19 01:05:14;;;;;;;6.20;3.03;;;21.00;99.90;;;;;;4768967;29;20083;-95
2023/06/19 01:07:59;;;;;;;;;;;21.00;99.90;;;;;;4757516;30;20043;-95
2023/06/19 01:10:34;;;;;;;4.05;3.35;;;21.00;99.90;;;;;;4770166;30;20358;-96
2023/06/19 01:13:04;;;;;;;3.20;2.90;;;21.00;99.90;;;;;;4763955;30;20047;-96
2023/06/19 01:15:33;;;;;;;4.35;3.63;;;20.90;99.90;;;;;;4777221;29;20085;-95
2023/06/19 01:18:00;;;;;;;3.78;3.15;;;21.00;99.90;;;;;;4777923;30;20142;-96
2023/06/19 01:20:28;;;;;;;5.13;3.30;;;21.10;99.90;;;;;;4765049;29;20042;-94
2023/06/19 01:22:56;;;;;;;3.35;3.05;;;21.00;99.90;;;;;;4778704;30;20043;-95
2023/06/19 01:25:23;;;;;;;4.32;3.42;;;21.10;99.90;;;;;;4744291;30;20047;-96
2023/06/19 01:27:50;;;;;;;2.97;2.58;;;21.10;99.90;;;;;;4762340;30;20112;-95
2023/06/19 01:30:16;;;;;;;5.20;3.15;;;21.10;99.90;;;;;;4753845;29;20555;-96
2023/06/19 01:32:54;;;;;;;3.13;2.80;;;21.00;99.90;;;;;;4778820;30;20054;-95
2023/06/19 01:35:27;;;;;;;4.63;3.20;;;21.10;99.90;;;;;;4764356;30;20300;-95
2023/06/19 01:37:59;;;;;;;3.45;3.05;;;21.10;99.90;;;;;;4778149;30;20043;-95
2023/06/19 01:40:27;;;;;;;3.15;2.85;;;21.00;99.90;;;;;;4773212;30;20043;-95
2023/06/19 01:42:54;;;;;;;3.17;2.90;;;21.00;99.90;;;;;;4771148;30;20057;-95
2023/06/19 01:45:20;;;;;;;4.53;3.22;;;21.00;99.90;;;;;;4775087;30;20396;-93
2023/06/19 01:47:46;;;;;;;3.47;3.17;;;21.10;99.90;;;;;;4745887;30;20043;-95
2023/06/19 01:50:12;;;;;;;3.97;3.20;;;21.00;99.90;;;;;;4784204;30;20046;-94
2023/06/19 01:52:39;;;;;;;3.33;2.97;;;20.90;99.90;;;;;;4761759;30;20039;-95
2023/06/19 01:55:05;;;;;;;3.63;3.13;;;20.90;99.90;;;;;;4776365;30;20051;-95
2023/06/19 01:57:32;;;;;;;3.70;2.92;;;20.90;99.90;;;;;;4761696;30;20062;-96
2023/06/19 01:59:57;;;;;;;4.63;2.90;;;20.90;99.90;;;;;;4746109;30;20130;-95
2023/06/19 02:02:27;;;;;;;3.53;3.22;;;20.80;99.90;;;;;;4760548;30;20134;-94
2023/06/19 02:04:52;;;;;;;3.25;2.90;;;20.50;99.90;;;;;;4774913;30;20047;-95
2023/06/19 02:07:18;;;;;;;4.90;3.47;;;20.80;99.90;;;;;;4777311;30;20055;-95
2023/06/19 02:09:44;;;;;;;4.00;3.60;;;20.80;99.90;;;;;;4765816;30;20126;-96
2023/06/19 02:12:09;;;;;;;3.97;3.15;;;20.70;99.90;;;;;;4745448;30;20051;-95
2023/06/19 02:14:35;;;;;;;3.20;2.90;;;20.70;99.90;;;;;;4760795;30;20059;-95
2023/06/19 02:17:01;;;;;;;3.40;2.97;;;20.70;99.90;;;;;;4761116;30;20055;-94
2023/06/19 02:19:27;;;;;;;3.78;3.10;;;20.60;99.90;;;;;;4771929;29;20745;-95
2023/06/19 02:21:52;;;;;;;3.45;3.15;;;20.60;99.90;;;;;;4746109;30;20047;-94
2023/06/19 02:24:18;;;;;;;3.90;3.40;;;20.60;99.90;;;;;;4750314;30;20107;-95
2023/06/19 02:26:44;;;;;;;3.25;2.92;;;20.60;99.90;;;;;;4761150;30;20114;-95
2023/06/19 02:29:10;;;;;;;3.93;3.13;;;20.60;99.90;;;;;;4759480;30;20051;-95
2023/06/19 02:31:36;;;;;;;5.68;3.42;;;20.60;99.90;;;;;;4761167;30;20108;-95
2023/06/19 02:34:02;;;;;;;3.38;3.08;;;20.60;99.90;;;;;;4764445;30;20128;-94
2023/06/19 02:36:28;;;;;;;4.10;3.15;;;20.60;99.90;;;;;;4764850;30;20035;-96
2023/06/19 02:38:54;;;;;;;4.07;3.22;;;20.50;99.90;;;;;;4759763;30;20047;-94
2023/06/19 02:41:20;;;;;;;3.25;2.92;;;20.60;99.90;;;;;;4758175;30;20121;-95
2023/06/19 02:43:47;;;;;;;6.20;3.58;;;20.50;99.90;;;;;;4771936;30;20091;-95
2023/06/19 02:46:13;;;;;;;3.53;3.20;;;20.50;99.90;;;;;;4774414;29;20051;-94
2023/06/19 02:48:39;;;;;;;3.50;3.13;;;20.50;99.90;;;;;;4754703;30;20138;-96
2023/06/19 02:51:05;;;;;;;3.33;3.03;;;20.50;99.90;;;;;;4773716;29;20161;-94
2023/06/19 02:53:31;;;;;;;4.97;3.38;;;20.50;99.90;;;;;;4768168;29;20043;-95
2023/06/19 02:55:56;;;;;;;3.30;3.00;;;20.50;99.90;;;;;;4759228;30;20054;-94
2023/06/19 02:58:22;;;;;;;3.80;3.40;;;20.50;99.90;;;;;;4748801;30;20042;-95
2023/06/19 03:00:48;;;;;;;3.42;3.10;;;20.50;99.90;;;;;;4755957;29;20143;-94
2023/06/19 03:03:14;;;;;;;4.53;3.35;;;20.50;99.90;;;;;;4773642;29;20051;-95
2023/06/19 03:05:40;;;;;;;4.45;3.42;;;20.50;99.90;;;;;;4780503;30;20044;-95
2023/06/19 03:08:05;;;;;;;4.18;3.30;;;20.50;99.90;;;;;;4765157;29;20043;-95
2023/06/19 03:10:31;;;;;;;3.40;3.10;;;20.50;99.90;;;;;;4773332;30;20506;-95
2023/06/19 03:12:58;;;;;;;3.85;3.42;;;20.50;99.90;;;;;;4768194;30;20048;-95
2023/06/19 03:15:25;;;;;;;4.05;3.30;;;20.50;99.90;;;;;;4769351;30;20055;-95
2023/06/19 03:17:53;;;;;;;3.80;3.35;;;20.50;99.90;;;;;;4769784;29;20051;-94
2023/06/19 03:20:19;;;;;;;4.55;3.38;;;20.50;99.90;;;;;;4767012;30;20552;-94
2023/06/19 03:22:44;;;;;;;4.00;3.47;;;20.40;99.90;;;;;;4785855;29;20054;-95
2023/06/19 03:25:10;;;;;;;3.60;3.30;;;20.50;99.90;;;;;;4746534;29;20844;-95
2023/06/19 03:27:36;;;;;;;3.78;3.05;;;20.50;99.90;;;;;;4759295;30;20043;-94
2023/06/19 03:30:06;;;;;;;5.13;3.13;;;20.50;99.90;;;;;;4741604;30;20051;-94
2023/06/19 03:32:33;;;;;;;4.45;3.30;;;20.50;99.90;;;;;;4772502;30;20051;-95
2023/06/19 03:34:59;;;;;;;3.55;3.25;;;20.60;99.90;;;;;;4757130;30;20253;-94
2023/06/19 03:37:25;;;;;;;3.90;3.25;;;20.60;99.90;;;;;;4773549;29;20130;-94
2023/06/19 03:39:51;;;;;;;3.75;3.45;;;20.70;99.90;;;;;;4756634;30;20043;-94
2023/06/19 03:42:16;;;;;;;4.40;3.70;;;20.70;99.90;;;;;;4757037;30;20070;-94
2023/06/19 03:44:42;;;;;;;5.15;3.00;;;20.80;99.90;;;;;;4741750;30;20051;-94
2023/06/19 03:47:08;;;;;;;3.70;3.40;;;20.80;99.90;;;;;;4752933;29;20086;-94
2023/06/19 03:49:34;;;;;;;3.97;3.58;;;20.80;99.90;;;;;;4750562;30;20059;-95
2023/06/19 03:51:59;;;;;;;4.13;2.90;;;20.80;99.90;;;;;;4756044;30;20112;-96
2023/06/19 03:54:26;;;;;;;4.20;3.03;;;20.80;99.90;;;;;;4772734;30;20043;-95
2023/06/19 03:56:52;;;;;;;3.72;3.35;;;20.80;99.90;;;;;;4742851;30;20050;-95
2023/06/19 03:59:18;;;;;;;3.37;3.07;;;20.90;99.90;;;;;;4768798;30;20048;-95
2023/06/19 04:01:43;;;;;;;3.40;3.10;;;20.90;99.90;;;;;;4773781;30;20063;-95
2023/06/19 04:04:09;;;;;;;3.63;3.30;;;20.90;99.90;;;;;;4770259;30;20043;-94
2023/06/19 04:06:35;;;;;;;4.55;3.30;;;20.90;99.90;;;;;;4753891;29;20574;-95
2023/06/19 04:09:01;;;;;;;3.22;2.92;;;20.90;99.90;;;;;;4757011;30;20049;-95
2023/06/19 04:11:26;;;;;;;4.13;3.20;;;20.90;99.90;;;;;;4763489;30;20035;-94
2023/06/19 04:13:52;;;;;;;3.85;3.00;;;21.00;99.90;;;;;;4757254;30;20059;-96
2023/06/19 04:16:18;;;;;;;3.67;2.92;;;21.00;99.90;;;;;;4762501;30;20103;-94
2023/06/19 04:18:44;;;;;;;3.95;3.55;;;21.00;99.90;;;;;;4757418;30;20481;-94
2023/06/19 04:21:09;;;;;;;3.63;2.90;;;21.00;99.90;;;;;;4762203;30;20217;-95
2023/06/19 04:23:35;;;;;;;4.88;3.00;;;21.10;99.90;;;;;;4758900;30;20109;-95
2023/06/19 04:26:02;;;;;;;3.75;3.00;;;21.10;99.90;;;;;;4766275;30;20086;-96
2023/06/19 04:28:27;;;;;;;3.00;2.70;;;21.10;99.90;;;;;;4772270;30;20811;-95
2023/06/19 04:31:00;;;;;;;3.00;2.70;;;21.10;99.90;;;;;;4760139;30;20157;-96
2023/06/19 04:33:29;;;;;;;3.42;2.90;;;21.10;99.90;;;;;;4770762;30;20583;-95
2023/06/19 04:35:56;;;;;;;3.85;3.10;;;21.10;99.90;;;;;;4771709;30;20039;-94
2023/06/19 04:38:24;;;;;;;3.20;2.83;;;21.10;99.90;;;;;;4755384;30;20112;-94
2023/06/19 04:40:51;;;;;;;3.08;2.78;;;21.20;99.90;;;;;;4756535;30;20437;-94
2023/06/19 04:43:17;;;;;;;4.45;2.72;;;21.20;99.90;;;;;;4745017;29;20066;-94
2023/06/19 04:45:43;;;;;;;2.88;2.53;;;21.20;99.90;;;;;;4749736;30;20056;-94
2023/06/19 04:48:09;;;;;;;3.20;2.78;;;21.30;99.90;;;;;;4777749;30;20054;-94
2023/06/19 04:50:35;;;;;;;5.78;2.70;;;21.30;99.90;;;;;;4772695;30;20085;-95
2023/06/19 04:53:01;;;;;;;3.15;2.80;;;21.30;99.90;;;;;;4742458;30;20047;-96
2023/06/19 04:55:30;;;;;;;3.05;2.75;;;21.40;99.90;;;;;;4757020;30;20071;-94
2023/06/19 04:57:56;;;;;;;3.20;2.83;;;21.40;99.90;;;;;;4749708;29;20095;-92
2023/06/19 05:00:23;;;;;;;2.92;2.60;;;21.50;99.90;;;;;;4786460;29;20047;-90
2023/06/19 05:02:49;;;;;;;;;;;21.50;99.90;;;;;;4788190;29;20087;-92
2023/06/19 05:05:16;;;;;;;3.67;2.50;;;21.50;99.90;;;;;;4763130;30;19913;-91
2023/06/19 05:07:42;;;;;;;2.95;2.33;;;21.60;99.90;;;;;;4779721;29;20046;-89
2023/06/19 05:10:08;;;;;;;4.13;2.50;;;21.60;99.90;;;;;;4783671;29;20048;-87
2023/06/19 05:12:35;;;;;;;6.93;2.13;;;21.60;99.90;;;;;;4794599;29;20058;-88
2023/06/19 05:15:04;;;;;;;3.33;2.10;;;21.70;99.90;;;;;;4759546;30;20071;-90
2023/06/19 05:17:30;;;;;;;3.00;2.00;;;21.70;99.90;;;;;;4754672;30;20043;-88
2023/06/19 05:19:55;;;;;;;4.90;2.33;;;21.70;99.90;;;;;;4747773;30;20069;-91
2023/06/19 05:22:23;;;;;;;3.95;2.10;;;21.70;99.90;;;;;;4746413;29;20058;-91
2023/06/19 05:24:49;;;;;;;3.08;2.00;;;21.80;99.90;;;;;;4760384;29;20042;-90
2023/06/19 05:27:15;;;;;;;4.55;1.73;;;21.80;99.90;;;;;;4754342;30;20559;-90
2023/06/19 05:29:41;;;;;;;3.85;2.00;;;21.80;99.90;;;;;;4776711;29;20043;-90
2023/06/19 05:32:09;;;;;;;3.28;1.70;;;21.70;99.90;;;;;;4770315;30;20116;-89
2023/06/19 05:34:35;;;;;;;6.05;2.00;;;21.80;99.90;;;;;;4759819;29;20046;-90
2023/06/19 05:37:03;;;;;;;4.68;1.90;;;21.90;99.90;;;;;;4760130;30;20158;-90
2023/06/19 05:39:29;;;;;;;2.35;1.77;;;21.90;99.90;;;;;;4761901;29;20044;-91
2023/06/19 05:41:55;;;;;;;2.17;1.75;;;22.00;99.90;;;;;;4752220;30;20059;-89
2023/06/19 05:44:20;;;;;;;3.65;2.40;;;22.00;99.90;;;;;;4757495;30;21388;-87
2023/06/19 05:46:46;;;;;;;2.75;2.28;;;22.10;99.90;;;;;;4750847;30;20087;-89
2023/06/19 05:49:34;;;;;;;3.38;2.15;;;22.10;99.90;;;;;;4763935;30;20046;-92
2023/06/19 05:52:09;;;;;;;3.53;2.00;;;22.20;99.90;;;;;;4769642;30;20051;-92
2023/06/19 05:54:35;;;;;;;3.03;2.03;;;22.50;99.90;;;;;;4771243;30;20054;-91
2023/06/19 05:57:00;;;;;;;2.80;2.00;;;22.90;99.90;;;;;;4751361;30;20047;-92
2023/06/19 05:59:26;;;;;;;2.75;1.98;;;23.30;99.90;;;;;;4751925;29;20047;-91
2023/06/19 06:01:53;;;;;;;4.05;2.20;;;23.50;99.90;;;;;;4762438;30;20582;-92
2023/06/19 06:04:21;;;;;;;5.28;2.70;;;23.60;99.90;;;;;;4761512;30;20043;-92
2023/06/19 06:06:47;;;;;;;2.75;2.45;;;23.60;99.90;;;;;;4759534;30;20504;-92
2023/06/19 06:09:14;;;;;;;3.83;2.25;;;23.50;99.90;;;;;;4759296;30;20051;-92
2023/06/19 06:11:40;;;;;;;3.92;2.95;;;23.30;99.90;;;;;;4774196;30;20055;-92
2023/06/19 06:14:06;;;;;;;7.32;3.10;;;23.20;99.90;;;;;;4749882;30;20051;-90
2023/06/19 06:16:31;;;;;;;4.33;2.80;;;23.00;99.90;;;;;;4772358;30;20047;-92
2023/06/19 06:18:57;;;;;;;4.05;3.22;;;22.80;99.90;;;;;;4744549;30;20047;-91
2023/06/19 06:21:22;;;;;;;3.93;2.40;;;22.70;99.90;;;;;;4772750;29;20085;-92
2023/06/19 06:23:48;;;;;;;3.17;2.67;;;22.50;99.90;;;;;;4781912;29;20071;-91
2023/06/19 06:26:14;;;;;;;4.43;2.97;;;22.40;99.90;;;;;;4766843;29;20107;-90
2023/06/19 06:28:40;;;;;;;3.85;3.00;;;22.40;99.90;;;;;;4763487;29;20084;-90
2023/06/19 06:31:06;;;;;;;6.43;3.13;;;22.40;99.90;;;;;;4777128;29;20087;-91
2023/06/19 06:33:32;;;;;;;4.25;3.42;;;22.30;99.90;;;;;;4761553;29;20043;-91
2023/06/19 06:35:59;;;;;;;4.80;3.20;;;22.20;99.90;;;;;;4758387;30;20131;-92
2023/06/19 06:38:25;;;;;;;3.55;3.25;;;22.20;99.90;;;;;;4768665;30;20039;-92
2023/06/19 06:40:51;;;;;;;4.45;3.17;;;22.20;99.90;;;;;;4758612;30;20047;-92
2023/06/19 06:43:25;;;;;;;3.85;3.30;;;22.20;99.90;;;;;;4746859;30;20063;-96
2023/06/19 06:49:58;;;;;;;3.50;2.42;;;22.40;99.90;;;;;;5021579;24;20085;-96
2023/06/19 06:52:33;;;;;;;3.03;2.75;;;22.20;99.90;;;;;;4773637;30;20052;-96
2023/06/19 06:55:15;;;;;;;4.35;2.50;;;22.40;99.90;;;;;;4780541;30;20063;-96
2023/06/19 07:00:51;;;;;;;2.42;2.20;;;22.40;99.90;;;;;;4836431;24;20048;-96
2023/06/19 07:04:04;;;;;;;2.75;2.40;;;22.30;99.90;;;;;;4801306;29;20031;-95
2023/06/19 07:09:07;;;;;;;2.22;1.83;;;22.10;99.90;;;;;;5680271;24;20046;-95
2023/06/19 07:21:57;;;;;;;2.70;1.70;;;21.90;99.90;;;;;;1487992;24;20336;-96
2023/06/19 07:24:39;;;;;;;2.38;1.77;;;21.80;99.90;;;;;;4758375;30;20065;-96
2023/06/19 07:27:06;;;;;;;2.33;1.60;;;21.90;99.90;;;;;;5189781;24;20064;-96
2023/06/19 07:29:47;;;;;;;3.38;2.80;;;21.70;99.90;;;;;;4783081;29;20071;-96
2023/06/19 07:32:14;;;;;;;3.50;3.20;;;21.60;99.90;;;;;;4776252;30;20027;-96
2023/06/19 07:34:54;;;;;;;3.15;2.72;;;21.70;99.90;;;;;;4768479;30;20112;-96
2023/06/19 07:37:22;;;;;;;3.60;3.30;;;21.30;99.90;;;;;;4761661;30;20032;-96
2023/06/19 07:39:58;;;;;;;4.28;3.78;;;21.40;99.90;;;;;;4800116;30;20089;-96
2023/06/19 07:42:39;;;;;;;5.15;4.25;;;21.40;99.90;;;;;;4769937;30;20043;-96
2023/06/19 07:45:08;;;;;;;4.63;3.75;;;21.30;99.90;;;;;;4761842;30;20070;-96
2023/06/19 07:48:02;;;;;;;4.63;3.85;;;21.50;99.90;;;;;;4768680;30;20063;-96
2023/06/19 07:50:57;;;;;;;3.83;3.40;;;21.30;99.90;;;;;;4767481;29;20060;-96
2023/06/19 07:53:25;;;;;;;7.18;5.20;;;21.10;99.90;;;;;;4768814;29;20060;-96
2023/06/19 07:55:55;;;;;;;5.18;4.68;;;21.20;99.90;;;;;;4760153;29;20047;-96
2023/06/19 07:58:35;;;;;;;6.07;4.82;;;21.00;99.90;;;;;;4772250;30;20674;-96
2023/06/19 08:01:03;;;;;;;5.70;5.20;;;21.10;99.90;;;;;;4785835;30;20088;-96
2023/06/19 08:03:30;;;;;;;8.05;6.20;;;21.00;99.90;;;;;;4759798;30;20039;-96
2023/06/19 08:05:58;;;;;;;;;;;21.10;99.90;;;;;;4752840;30;20081;-96
2023/06/19 08:08:24;;;;;;;;;;;21.10;99.90;;;;;;4751069;30;19993;-96
2023/06/19 08:10:53;;;;;;;6.40;5.25;;;21.00;99.90;;;;;;4759694;30;19976;-96
2023/06/19 08:13:21;;;;;;;6.30;5.70;;;21.00;99.90;;;;;;4758371;30;20052;-96
2023/06/19 08:15:47;;;;;;;6.07;5.47;;;21.00;99.90;;;;;;4748728;30;20044;-96
2023/06/19 08:18:13;;;;;;;5.85;5.25;;;21.00;99.90;;;;;;4760804;30;20079;-96
2023/06/19 08:20:39;;;;;;;6.65;5.43;;;21.00;99.90;;;;;;4739640;30;20054;-96
2023/06/19 08:23:05;;;;;;;5.23;4.73;;;21.00;99.90;;;;;;4764463;30;20051;-96
2023/06/19 08:25:31;;;;;;;4.93;4.40;;;21.10;99.90;;;;;;4771391;30;20184;-96
2023/06/19 08:27:57;;;;;;;5.65;4.88;;;21.10;99.90;;;;;;4766930;30;20056;-96
2023/06/19 08:30:23;;;;;;;5.07;4.57;;;21.10;99.90;;;;;;4738176;30;20112;-95
2023/06/19 08:32:49;;;;;;;5.18;3.85;;;21.00;99.90;;;;;;4758484;30;20048;-94
2023/06/19 08:35:15;;;;;;;6.07;3.50;;;21.00;99.90;;;;;;4758340;30;20122;-92
2023/06/19 08:37:41;;;;;;;6.63;3.67;;;21.00;99.90;;;;;;4758531;30;20048;-95
2023/06/19 08:40:09;;;;;;;4.60;3.53;;;21.00;99.90;;;;;;4743425;30;20114;-92
2023/06/19 08:42:36;;;;;;;6.28;3.50;;;21.00;99.90;;;;;;4743372;30;20055;-93
2023/06/19 08:45:01;;;;;;;3.58;2.97;;;21.10;99.90;;;;;;4754602;30;20113;-95
2023/06/19 08:47:33;;;;;;;3.78;3.20;;;21.10;99.90;;;;;;4747601;30;20040;-95
2023/06/19 08:49:59;;;;;;;3.85;2.95;;;21.20;99.90;;;;;;4745126;30;20103;-93
2023/06/19 08:52:25;;;;;;;3.72;3.05;;;21.20;99.90;;;;;;4759082;30;20048;-94
2023/06/19 08:54:51;;;;;;;6.65;3.47;;;21.20;99.90;;;;;;4762631;30;20052;-94
2023/06/19 08:57:17;;;;;;;4.47;3.13;;;21.30;99.90;;;;;;4744744;30;20043;-94
2023/06/19 08:59:50;;;;;;;3.85;3.08;;;21.30;99.90;;;;;;4749392;30;20131;-93
2023/06/19 09:02:16;;;;;;;3.97;2.95;;;21.20;99.90;;;;;;4747257;30;20056;-93
2023/06/19 09:04:42;;;;;;;6.22;3.00;;;21.20;99.90;;;;;;4746806;30;20051;-94
2023/06/19 09:07:09;;;;;;;3.35;2.35;;;21.20;99.90;;;;;;4745144;30;20059;-93
2023/06/19 09:09:35;;;;;;;3.95;2.33;;;21.20;99.90;;;;;;4751854;30;20058;-94
2023/06/19 09:12:05;;;;;;;3.60;1.77;;;21.20;99.90;;;;;;4741872;30;20048;-94
2023/06/19 09:14:36;;;;;;;2.42;2.08;;;21.00;99.90;;;;;;4754159;30;20048;-92
2023/06/19 09:17:03;;;;;;;4.47;2.45;;;21.20;99.90;;;;;;4763387;30;20051;-96
2023/06/19 09:19:29;;;;;;;5.43;2.50;;;21.20;99.90;;;;;;4756102;30;20122;-95
2023/06/19 09:22:06;;;;;;;3.70;2.20;;;21.20;99.90;;;;;;4752962;30;20083;-94
2023/06/19 09:24:40;;;;;;;4.80;1.80;;;21.30;99.90;;;;;;4742167;30;20531;-93
2023/06/19 09:27:12;;;;;;;6.22;1.98;;;21.30;99.90;;;;;;4744202;30;20667;-95
2023/06/19 09:29:38;;;;;;;3.15;1.45;;;21.30;99.90;;;;;;4761514;30;20048;-94
2023/06/19 09:32:21;;;;;;;3.42;2.05;;;21.40;99.90;;;;;;4759436;30;20094;-96
2023/06/19 09:34:50;;;;;;;1.98;1.40;;;21.40;99.90;;;;;;4753488;30;20110;-93
2023/06/19 09:37:22;;;;;;;2.30;1.50;;;21.50;99.90;;;;;;4758071;30;20069;-95
2023/06/19 09:39:55;;;;;;;1.92;1.52;;;21.50;99.90;;;;;;4758320;30;20048;-93
2023/06/19 09:42:32;;;;;;;3.25;1.40;;;21.60;99.90;;;;;;4750183;30;20484;-93
2023/06/19 09:45:19;;;;;;;2.22;1.83;;;21.70;99.90;;;;;;4755966;30;20051;-93
2023/06/19 09:47:46;;;;;;;3.00;2.10;;;21.70;99.90;;;;;;4749577;30;20084;-94
2023/06/19 09:50:14;;;;;;;2.65;1.73;;;21.70;99.90;;;;;;4765343;30;20136;-93
2023/06/19 09:52:42;;;;;;;3.03;1.85;;;21.80;99.90;;;;;;4752804;30;20055;-95
2023/06/19 09:55:09;;;;;;;2.45;1.80;;;21.80;99.90;;;;;;4747948;30;20042;-94
2023/06/19 09:57:38;;;;;;;2.88;1.85;;;21.80;99.90;;;;;;4752225;30;20043;-93
2023/06/19 10:00:12;;;;;;;2.38;2.13;;;21.80;99.90;;;;;;4745001;30;20079;-93
2023/06/19 10:02:42;;;;;;;5.43;2.35;;;21.80;99.90;;;;;;4748946;30;20051;-94
2023/06/19 10:05:14;;;;;;;2.70;2.30;;;21.70;99.90;;;;;;4754230;30;20093;-93
2023/06/19 10:07:45;;;;;;;4.20;2.42;;;21.60;99.90;;;;;;4763434;30;20047;-94
2023/06/19 10:10:23;;;;;;;3.80;2.60;;;21.50;99.90;;;;;;4745689;30;20551;-93
2023/06/19 10:12:49;;;;;;;2.75;2.38;;;21.50;99.90;;;;;;4752574;30;20050;-95
2023/06/19 10:15:19;;;;;;;5.00;2.40;;;21.60;99.90;;;;;;4750682;30;20052;-94
2023/06/19 10:17:50;;;;;;;4.13;2.60;;;21.60;99.90;;;;;;4759672;30;20047;-93
2023/06/19 10:20:44;;;;;;;3.38;2.85;;;21.60;99.90;;;;;;4746947;30;20048;-95
2023/06/19 10:23:24;;;;;;;4.70;2.90;;;21.60;99.90;;;;;;4766261;30;20051;-95
2023/06/19 10:26:08;;;;;;;3.35;2.75;;;21.70;99.90;;;;;;4752588;30;20048;-95
2023/06/19 10:28:37;;;;;;;3.85;2.92;;;21.60;99.90;;;;;;4765777;30;20451;-93
2023/06/19 10:31:05;;;;;;;4.32;3.20;;;21.60;99.90;;;;;;4728608;30;20048;-94
2023/06/19 10:33:33;;;;;;;3.75;3.10;;;21.50;99.90;;;;;;4755017;30;20150;-95
2023/06/19 10:36:00;;;;;;;4.57;3.10;;;21.50;99.90;;;;;;4772736;30;20051;-92
2023/06/19 10:38:27;;;;;;;4.85;3.97;;;21.40;99.90;;;;;;4729508;30;20036;-95
2023/06/19 10:40:52;;;;;;;3.25;2.90;;;21.40;99.90;;;;;;4750600;30;20051;-93
2023/06/19 10:43:35;;;;;;;4.20;3.60;;;21.40;99.90;;;;;;4757367;30;20489;-94
2023/06/19 10:46:18;;;;;;;4.20;3.40;;;21.30;99.90;;;;;;4746985;30;20052;-94
2023/06/19 10:48:47;;;;;;;3.92;3.42;;;21.20;99.90;;;;;;4737499;30;20055;-94
2023/06/19 10:51:18;;;;;;;5.00;3.40;;;21.20;99.90;;;;;;4751591;30;20134;-92
2023/06/19 10:53:47;;;;;;;4.30;3.90;;;21.10;99.90;;;;;;4766873;30;20052;-94
2023/06/19 10:56:13;;;;;;;4.88;3.88;;;20.70;99.90;;;;;;4734293;30;20052;-93
2023/06/19 10:58:58;;;;;;;5.93;3.67;;;21.30;99.90;;;;;;4749651;30;20047;-94
2023/06/19 11:01:47;;;;;;;4.43;3.72;;;22.00;99.90;;;;;;4737100;30;20362;-93
2023/06/19 11:04:15;;;;;;;4.40;3.53;;;21.80;99.90;;;;;;4752262;30;20122;-94
2023/06/19 11:07:02;;;;;;;4.72;3.58;;;22.00;99.90;;;;;;4758761;30;20056;-93
2023/06/19 11:10:05;;;;;;;4.03;3.30;;;22.20;99.90;;;;;;4770461;30;20061;-94
2023/06/19 11:12:33;;;;;;;4.03;3.50;;;22.30;99.90;;;;;;4725580;30;20075;-93
2023/06/19 11:15:03;;;;;;;3.90;3.60;;;22.60;99.90;;;;;;4739911;30;20045;-93
2023/06/19 11:17:34;;;;;;;3.90;3.47;;;22.70;99.90;;;;;;4746932;30;20044;-94
2023/06/19 11:43:23;;;;;;;4.32;3.28;;;23.20;99.90;;;;;;4597319;31;20047;-94
2023/06/19 11:45:49;;;;;;;3.53;3.17;;;23.40;99.90;;;;;;4610860;30;20050;-94
2023/06/19 11:48:24;;;;;;;3.47;3.13;;;23.50;99.90;;;;;;4677156;30;20546;-94
2023/06/19 11:50:51;;;;;;;4.10;3.42;;;23.60;99.90;;;;;;4742074;30;20122;-94
2023/06/19 11:53:17;;;;;;;;;;;23.80;99.90;;;;;;4739515;30;20512;-95
2023/06/19 11:55:43;;;;;;;4.30;3.38;;;23.80;99.90;;;;;;4743650;30;20009;-94
2023/06/19 11:58:09;;;;;;;7.33;3.63;;;23.90;99.90;;;;;;4754247;30;20040;-93
2023/06/19 12:00:38;;;;;;;4.23;3.70;;;23.80;99.90;;;;;;4752086;30;20051;-94
2023/06/19 12:03:04;;;;;;;4.80;3.65;;;23.70;99.90;;;;;;4741795;30;20056;-94
2023/06/19 12:05:30;;;;;;;5.32;3.50;;;23.60;99.90;;;;;;4760856;30;20569;-94
2023/06/19 12:08:07;;;;;;;5.55;3.83;;;23.60;99.90;;;;;;4755545;30;20047;-94
2023/06/19 12:10:34;;;;;;;4.05;3.53;;;23.70;99.90;;;;;;4724728;30;20451;-93
2023/06/19 12:13:00;;;;;;;4.97;4.13;;;23.80;99.90;;;;;;4743004;30;20556;-93
2023/06/19 12:15:35;;;;;;;5.47;4.00;;;23.70;99.90;;;;;;4772496;30;20119;-93
2023/06/19 12:18:01;;;;;;;4.80;3.92;;;23.70;99.90;;;;;;4743964;30;20108;-93
2023/06/19 12:20:27;;;;;;;4.40;4.00;;;23.60;99.90;;;;;;4756008;30;20048;-94
2023/06/19 12:22:53;;;;;;;3.60;3.30;;;23.60;99.90;;;;;;4762478;30;20132;-95
2023/06/19 12:25:19;;;;;;;5.38;4.25;;;23.50;99.90;;;;;;4752788;30;20043;-94
2023/06/19 12:27:44;;;;;;;7.38;3.95;;;23.50;99.90;;;;;;4759993;30;20051;-91
2023/06/19 12:30:11;;;;;;;4.63;4.20;;;23.50;99.90;;;;;;4741898;30;20051;-92
2023/06/19 12:32:37;;;;;;;4.40;3.97;;;23.60;99.90;;;;;;4744019;30;20550;-91
2023/06/19 12:35:03;;;;;;;4.70;3.75;;;23.60;99.90;;;;;;4739214;30;20080;-90
2023/06/19 12:37:29;;;;;;;6.03;3.90;;;23.60;99.90;;;;;;4739766;30;20036;-89
2023/06/19 12:39:55;;;;;;;4.93;4.40;;;23.70;99.90;;;;;;4749204;30;20046;-89
2023/06/19 12:42:21;;;;;;;6.37;4.20;;;23.60;99.90;;;;;;4752368;30;20102;-89
2023/06/19 12:44:46;;;;;;;4.80;4.30;;;23.60;99.90;;;;;;4750145;29;20065;-91
2023/06/19 12:47:12;;;;;;;4.00;3.40;;;23.50;99.90;;;;;;4771940;29;20071;-89
2023/06/19 12:49:38;;;;;;;5.53;3.60;;;23.50;99.90;;;;;;4779458;29;20032;-91
2023/06/19 12:52:04;;;;;;;4.93;4.03;;;23.50;99.90;;;;;;4760924;30;20087;-91
2023/06/19 12:54:31;;;;;;;4.57;4.07;;;23.50;99.90;;;;;;4762375;29;20031;-91
2023/06/19 12:56:57;;;;;;;6.70;4.07;;;23.50;99.90;;;;;;4750160;30;20067;-92
2023/06/19 12:59:23;;;;;;;4.43;4.00;;;23.50;99.90;;;;;;4745945;30;20083;-92
2023/06/19 13:01:48;;;;;;;5.80;5.27;;;23.50;99.90;;;;;;4748009;30;20048;-89
2023/06/19 13:04:14;;;;;;;5.20;4.40;;;23.50;99.90;;;;;;4746501;30;20096;-92
2023/06/19 13:06:40;;;;;;;5.40;3.97;;;23.40;99.90;;;;;;4736336;30;20063;-92
2023/06/19 13:09:06;;;;;;;5.13;3.60;;;23.40;99.90;;;;;;4739073;30;20530;-91
2023/06/19 13:11:36;;;;;;;5.28;3.60;;;23.40;99.90;;;;;;4758230;30;20120;-93
2023/06/19 13:14:02;;;;;;;4.88;3.97;;;23.40;99.90;;;;;;4745840;30;20040;-91
2023/06/19 13:16:27;;;;;;;4.83;3.83;;;23.50;99.90;;;;;;4755811;30;20047;-93
2023/06/19 13:18:53;;;;;;;5.60;3.60;;;23.50;99.90;;;;;;4749339;30;20396;-92
2023/06/19 13:21:19;;;;;;;5.27;3.83;;;23.50;99.90;;;;;;4742746;30;20048;-93
2023/06/19 13:23:49;;;;;;;4.78;3.58;;;23.50;99.90;;;;;;4745991;30;20143;-93
2023/06/19 13:26:14;;;;;;;5.28;3.83;;;23.50;99.90;;;;;;4751850;30;20144;-93
2023/06/19 13:28:40;;;;;;;4.32;3.65;;;23.50;99.90;;;;;;4739193;30;20072;-93
2023/06/19 13:31:06;;;;;;;4.40;3.83;;;23.50;99.90;;;;;;4750549;30;20088;-91
2023/06/19 13:33:31;;;;;;;4.53;3.77;;;23.60;99.90;;;;;;4742503;30;20051;-92
2023/06/19 13:35:57;;;;;;;3.80;3.10;;;23.60;99.90;;;;;;4747241;30;20040;-90
2023/06/19 13:38:23;;;;;;;4.60;2.90;;;23.60;99.90;;;;;;4755419;30;20672;-91